createdAt,value
2018-03-03T00:00:57.487Z,971.99
2018-03-03T00:01:57.407Z,972.00
2018-03-03T00:02:57.316Z,972.03
2018-03-03T00:03:57.231Z,972.04
2018-03-03T00:04:57.143Z,972.02
2018-03-03T00:05:57.057Z,972.02
2018-03-03T00:06:56.970Z,972.02
2018-03-03T00:07:56.885Z,972.03
2018-03-03T00:08:56.796Z,972.04
2018-03-03T00:09:56.715Z,972.04
2018-03-03T00:10:56.626Z,972.03
2018-03-03T00:11:56.540Z,972.07
2018-03-03T00:12:56.452Z,972.04
2018-03-03T00:13:56.369Z,972.01
2018-03-03T00:14:56.279Z,972.02
2018-03-03T00:15:56.194Z,971.95
2018-03-03T00:16:56.107Z,971.98
2018-03-03T00:17:56.021Z,971.90
2018-03-03T00:18:55.938Z,971.90
2018-03-03T00:19:55.849Z,971.93
2018-03-03T00:20:55.763Z,971.92
2018-03-03T00:21:55.677Z,971.94
2018-03-03T00:22:55.590Z,971.90
2018-03-03T00:23:55.503Z,971.89
2018-03-03T00:24:55.418Z,971.90
2018-03-03T00:25:55.332Z,971.88
2018-03-03T00:26:55.246Z,971.84
2018-03-03T00:27:55.161Z,971.82
2018-03-03T00:28:55.073Z,971.83
2018-03-03T00:29:54.986Z,971.82
2018-03-03T00:30:54.901Z,971.80
2018-03-03T00:31:54.815Z,971.79
2018-03-03T00:32:54.728Z,971.79
2018-03-03T00:33:54.644Z,971.76
2018-03-03T00:34:54.557Z,971.81
2018-03-03T00:35:54.471Z,971.82
2018-03-03T00:36:54.384Z,971.81
2018-03-03T00:37:54.298Z,971.80
2018-03-03T00:38:54.212Z,971.76
2018-03-03T00:39:54.127Z,971.78
2018-03-03T00:40:54.040Z,971.80
2018-03-03T00:41:53.954Z,971.81
2018-03-03T00:42:53.868Z,971.79
2018-03-03T00:43:53.780Z,971.78
2018-03-03T00:44:53.694Z,971.80
2018-03-03T00:45:53.610Z,971.75
2018-03-03T00:46:53.523Z,971.78
2018-03-03T00:47:53.437Z,971.80
2018-03-03T00:48:53.350Z,971.84
2018-03-03T00:49:53.264Z,971.93
2018-03-03T00:50:53.179Z,971.94
2018-03-03T00:51:53.093Z,971.96
2018-03-03T00:52:53.006Z,971.98
2018-03-03T00:53:52.920Z,971.97
2018-03-03T00:54:52.834Z,972.03
2018-03-03T00:55:52.749Z,972.03
2018-03-03T00:56:52.664Z,972.01
2018-03-03T00:57:52.581Z,971.96
2018-03-03T00:58:52.490Z,971.97
2018-03-03T00:59:52.409Z,971.99
2018-03-03T01:00:52.319Z,972.03
2018-03-03T01:01:52.232Z,972.01
2018-03-03T01:02:52.146Z,972.03
2018-03-03T01:03:52.063Z,972.02
2018-03-03T01:04:51.973Z,972.05
2018-03-03T01:05:51.887Z,972.12
2018-03-03T01:06:51.801Z,972.06
2018-03-03T01:07:51.716Z,972.02
2018-03-03T01:08:51.629Z,971.98
2018-03-03T01:09:51.542Z,971.98
2018-03-03T01:10:51.462Z,971.98
2018-03-03T01:11:51.371Z,971.96
2018-03-03T01:12:51.284Z,971.94
2018-03-03T01:13:51.198Z,971.86
2018-03-03T01:14:51.112Z,971.85
2018-03-03T01:15:51.027Z,971.84
2018-03-03T01:16:50.940Z,971.80
2018-03-03T01:17:50.853Z,971.80
2018-03-03T01:18:50.766Z,971.82
2018-03-03T01:19:50.681Z,971.79
2018-03-03T01:20:50.594Z,971.75
2018-03-03T01:21:50.508Z,971.80
2018-03-03T01:22:50.422Z,971.78
2018-03-03T01:23:50.337Z,971.73
2018-03-03T01:24:50.250Z,971.72
2018-03-03T01:25:50.164Z,971.78
2018-03-03T01:26:50.078Z,971.72
2018-03-03T01:27:49.992Z,971.74
2018-03-03T01:28:49.906Z,971.70
2018-03-03T01:29:49.820Z,971.67
2018-03-03T01:30:49.734Z,971.69
2018-03-03T01:31:49.653Z,971.66
2018-03-03T01:32:49.562Z,971.69
2018-03-03T01:33:49.476Z,971.66
2018-03-03T01:34:49.390Z,971.69
2018-03-03T01:35:49.304Z,971.69
2018-03-03T01:36:49.219Z,971.67
2018-03-03T01:37:49.133Z,971.68
2018-03-03T01:38:49.046Z,971.64
2018-03-03T01:39:48.961Z,971.66
2018-03-03T01:40:48.874Z,971.67
2018-03-03T01:41:48.792Z,971.63
2018-03-03T01:42:48.703Z,971.61
2018-03-03T01:43:48.618Z,971.64
2018-03-03T01:44:48.530Z,971.58
2018-03-03T01:45:48.445Z,971.57
2018-03-03T01:46:48.360Z,971.55
2018-03-03T01:47:48.274Z,971.55
2018-03-03T01:48:48.186Z,971.55
2018-03-03T01:49:48.100Z,971.56
2018-03-03T01:50:48.016Z,971.53
2018-03-03T01:51:47.933Z,971.54
2018-03-03T01:52:47.844Z,971.49
2018-03-03T01:53:47.758Z,971.52
2018-03-03T01:54:47.673Z,971.47
2018-03-03T01:55:47.585Z,971.44
2018-03-03T01:56:47.500Z,971.37
2018-03-03T01:57:47.415Z,971.37
2018-03-03T01:58:47.329Z,971.38
2018-03-03T01:59:47.246Z,971.37
2018-03-03T02:00:47.157Z,971.37
2018-03-03T02:01:47.070Z,971.44
2018-03-03T02:02:46.984Z,971.45
2018-03-03T02:03:46.899Z,971.49
2018-03-03T02:04:46.813Z,971.51
2018-03-03T02:05:46.726Z,971.54
2018-03-03T02:06:46.646Z,971.55
2018-03-03T02:07:46.556Z,971.53
2018-03-03T02:08:46.469Z,971.54
2018-03-03T02:09:46.386Z,971.51
2018-03-03T02:10:46.297Z,971.58
2018-03-03T02:11:46.212Z,971.58
2018-03-03T02:12:46.124Z,971.58
2018-03-03T02:13:46.039Z,971.55
2018-03-03T02:14:45.953Z,971.57
2018-03-03T02:15:45.869Z,971.52
2018-03-03T02:16:45.781Z,971.53
2018-03-03T02:17:45.698Z,971.42
2018-03-03T02:18:45.611Z,971.43
2018-03-03T02:19:45.524Z,971.43
2018-03-03T02:20:45.437Z,971.43
2018-03-03T02:21:45.351Z,971.44
2018-03-03T02:22:45.266Z,971.51
2018-03-03T02:23:45.180Z,971.46
2018-03-03T02:24:45.093Z,971.42
2018-03-03T02:25:45.008Z,971.38
2018-03-03T02:26:44.922Z,971.38
2018-03-03T02:27:44.835Z,971.34
2018-03-03T02:28:44.753Z,971.38
2018-03-03T02:29:44.664Z,971.39
2018-03-03T02:30:44.579Z,971.37
2018-03-03T02:31:44.493Z,971.39
2018-03-03T02:32:44.411Z,971.34
2018-03-03T02:33:44.321Z,971.37
2018-03-03T02:34:44.240Z,971.35
2018-03-03T02:35:44.151Z,971.34
2018-03-03T02:36:44.064Z,971.36
2018-03-03T02:37:43.977Z,971.34
2018-03-03T02:38:43.894Z,971.30
2018-03-03T02:39:43.807Z,971.34
2018-03-03T02:40:43.721Z,971.31
2018-03-03T02:41:43.635Z,971.24
2018-03-03T02:42:43.548Z,971.17
2018-03-03T02:43:43.469Z,971.13
2018-03-03T02:44:43.377Z,971.07
2018-03-03T02:45:52.564Z,971.11
2018-03-03T02:46:43.206Z,971.09
2018-03-03T02:47:43.127Z,971.07
2018-03-03T02:48:43.035Z,971.09
2018-03-03T02:49:42.949Z,971.10
2018-03-03T02:50:42.865Z,971.13
2018-03-03T02:51:42.778Z,971.08
2018-03-03T02:52:42.694Z,971.08
2018-03-03T02:53:42.605Z,971.08
2018-03-03T02:54:42.521Z,971.02
2018-03-03T02:55:42.435Z,970.97
2018-03-03T02:56:42.348Z,970.96
2018-03-03T02:57:42.265Z,970.96
2018-03-03T02:58:42.178Z,970.98
2018-03-03T02:59:42.095Z,970.94
2018-03-03T03:00:42.005Z,970.87
2018-03-03T03:01:41.920Z,970.83
2018-03-03T03:02:41.839Z,970.84
2018-03-03T03:03:41.749Z,970.87
2018-03-03T03:04:41.661Z,970.86
2018-03-03T03:05:41.577Z,970.88
2018-03-03T03:06:41.490Z,970.90
2018-03-03T03:07:41.405Z,970.81
2018-03-03T03:08:41.318Z,970.85
2018-03-03T03:09:41.233Z,970.80
2018-03-03T03:10:41.147Z,970.77
2018-03-03T03:11:41.061Z,970.75
2018-03-03T03:12:40.975Z,970.72
2018-03-03T03:13:40.892Z,970.65
2018-03-03T03:14:40.804Z,970.63
2018-03-03T03:15:40.718Z,970.63
2018-03-03T03:16:40.632Z,970.64
2018-03-03T03:17:40.547Z,970.59
2018-03-03T03:18:40.466Z,970.55
2018-03-03T03:19:40.375Z,970.53
2018-03-03T03:20:40.290Z,970.59
2018-03-03T03:21:40.205Z,970.59
2018-03-03T03:22:40.118Z,970.63
2018-03-03T03:23:40.032Z,970.67
2018-03-03T03:24:39.950Z,970.65
2018-03-03T03:25:39.860Z,970.65
2018-03-03T03:26:39.774Z,970.65
2018-03-03T03:27:39.688Z,970.70
2018-03-03T03:28:39.603Z,970.73
2018-03-03T03:29:39.517Z,970.75
2018-03-03T03:30:39.431Z,970.76
2018-03-03T03:31:39.349Z,970.75
2018-03-03T03:32:39.257Z,970.71
2018-03-03T03:33:39.173Z,970.73
2018-03-03T03:34:39.085Z,970.69
2018-03-03T03:35:38.999Z,970.65
2018-03-03T03:36:38.913Z,970.65
2018-03-03T03:37:38.827Z,970.63
2018-03-03T03:38:38.742Z,970.59
2018-03-03T03:39:38.656Z,970.55
2018-03-03T03:40:38.568Z,970.57
2018-03-03T03:41:38.483Z,970.55
2018-03-03T03:42:38.398Z,970.55
2018-03-03T03:43:38.312Z,970.55
2018-03-03T03:44:38.226Z,970.57
2018-03-03T03:45:38.140Z,970.54
2018-03-03T03:46:38.053Z,970.55
2018-03-03T03:47:37.969Z,970.51
2018-03-03T03:48:37.881Z,970.48
2018-03-03T03:49:37.796Z,970.47
2018-03-03T03:50:37.710Z,970.50
2018-03-03T03:51:37.625Z,970.48
2018-03-03T03:52:37.538Z,970.52
2018-03-03T03:53:37.453Z,970.49
2018-03-03T03:54:37.367Z,970.53
2018-03-03T03:55:37.281Z,970.53
2018-03-03T03:56:37.198Z,970.57
2018-03-03T03:57:37.120Z,970.60
2018-03-03T03:58:37.023Z,970.64
2018-03-03T03:59:36.938Z,970.63
2018-03-03T04:00:36.850Z,970.65
2018-03-03T04:01:36.764Z,970.63
2018-03-03T04:02:36.678Z,970.63
2018-03-03T04:03:36.891Z,970.66
2018-03-03T04:04:36.506Z,970.67
2018-03-03T04:05:36.423Z,970.63
2018-03-03T04:06:36.334Z,970.65
2018-03-03T04:07:36.249Z,970.66
2018-03-03T04:08:36.161Z,970.66
2018-03-03T04:09:36.075Z,970.73
2018-03-03T04:10:35.989Z,970.67
2018-03-03T04:11:35.903Z,970.67
2018-03-03T04:12:35.816Z,970.58
2018-03-03T04:13:35.730Z,970.58
2018-03-03T04:14:35.647Z,970.56
2018-03-03T04:15:35.559Z,970.59
2018-03-03T04:16:35.472Z,970.56
2018-03-03T04:17:35.387Z,970.51
2018-03-03T04:18:35.302Z,970.48
2018-03-03T04:19:35.220Z,970.45
2018-03-03T04:20:35.129Z,970.44
2018-03-03T04:21:35.047Z,970.41
2018-03-03T04:22:34.958Z,970.36
2018-03-03T04:23:34.872Z,970.34
2018-03-03T04:24:34.785Z,970.33
2018-03-03T04:25:34.700Z,970.36
2018-03-03T04:26:34.617Z,970.30
2018-03-03T04:27:34.528Z,970.30
2018-03-03T04:28:34.440Z,970.28
2018-03-03T04:29:34.355Z,970.30
2018-03-03T04:30:34.270Z,970.31
2018-03-03T04:31:34.183Z,970.29
2018-03-03T04:32:34.097Z,970.31
2018-03-03T04:33:34.010Z,970.31
2018-03-03T04:34:33.924Z,970.31
2018-03-03T04:35:33.838Z,970.32
2018-03-03T04:36:33.751Z,970.29
2018-03-03T04:37:33.665Z,970.30
2018-03-03T04:38:33.579Z,970.29
2018-03-03T04:39:33.493Z,970.26
2018-03-03T04:40:33.408Z,970.23
2018-03-03T04:41:33.323Z,970.17
2018-03-03T04:42:33.234Z,970.19
2018-03-03T04:43:33.148Z,970.18
2018-03-03T04:44:33.061Z,970.15
2018-03-03T04:45:32.977Z,970.22
2018-03-03T04:46:32.889Z,970.23
2018-03-03T04:47:32.812Z,970.17
2018-03-03T04:48:32.717Z,970.15
2018-03-03T04:49:32.630Z,970.17
2018-03-03T04:50:32.545Z,970.18
2018-03-03T04:51:32.462Z,970.15
2018-03-03T04:52:32.371Z,970.13
2018-03-03T04:53:32.284Z,970.15
2018-03-03T04:54:32.201Z,970.09
2018-03-03T04:55:32.114Z,970.12
2018-03-03T04:56:32.027Z,970.10
2018-03-03T04:57:31.941Z,970.07
2018-03-03T04:58:31.855Z,970.06
2018-03-03T04:59:31.769Z,970.04
2018-03-03T05:00:31.683Z,969.99
2018-03-03T05:01:31.595Z,969.96
2018-03-03T05:02:31.510Z,969.93
2018-03-03T05:03:31.424Z,969.94
2018-03-03T05:04:31.338Z,969.94
2018-03-03T05:05:31.252Z,969.94
2018-03-03T05:06:31.166Z,969.89
2018-03-03T05:07:31.081Z,969.88
2018-03-03T05:08:30.995Z,969.86
2018-03-03T05:09:30.908Z,969.89
2018-03-03T05:10:30.822Z,969.86
2018-03-03T05:11:30.736Z,969.86
2018-03-03T05:12:30.649Z,969.86
2018-03-03T05:13:30.563Z,969.86
2018-03-03T05:14:30.478Z,969.82
2018-03-03T05:15:30.396Z,969.79
2018-03-03T05:16:30.306Z,969.83
2018-03-03T05:17:30.225Z,969.84
2018-03-03T05:18:30.135Z,969.82
2018-03-03T05:19:30.049Z,969.81
2018-03-03T05:20:29.962Z,969.79
2018-03-03T05:21:29.877Z,969.80
2018-03-03T05:22:29.790Z,969.75
2018-03-03T05:23:29.705Z,969.75
2018-03-03T05:24:29.618Z,969.77
2018-03-03T05:25:29.535Z,969.78
2018-03-03T05:26:29.447Z,969.80
2018-03-03T05:27:29.362Z,969.81
2018-03-03T05:28:29.274Z,969.83
2018-03-03T05:29:29.189Z,969.84
2018-03-03T05:30:29.103Z,969.88
2018-03-03T05:31:29.018Z,969.88
2018-03-03T05:32:28.932Z,969.85
2018-03-03T05:33:28.850Z,969.81
2018-03-03T05:34:28.760Z,969.85
2018-03-03T05:35:28.675Z,969.88
2018-03-03T05:36:28.599Z,969.87
2018-03-03T05:37:28.503Z,969.88
2018-03-03T05:38:28.416Z,969.87
2018-03-03T05:39:28.331Z,969.82
2018-03-03T05:40:28.244Z,969.81
2018-03-03T05:41:28.158Z,969.78
2018-03-03T05:42:28.073Z,969.79
2018-03-03T05:43:27.995Z,969.78
2018-03-03T05:44:27.901Z,969.79
2018-03-03T05:45:27.814Z,969.79
2018-03-03T05:46:27.728Z,969.82
2018-03-03T05:47:27.643Z,969.81
2018-03-03T05:48:27.558Z,969.82
2018-03-03T05:49:27.472Z,969.77
2018-03-03T05:50:27.427Z,969.78
2018-03-03T05:51:27.298Z,969.78
2018-03-03T05:52:27.214Z,969.79
2018-03-03T05:53:27.126Z,969.80
2018-03-03T05:54:27.041Z,969.81
2018-03-03T05:55:26.954Z,969.81
2018-03-03T05:56:26.867Z,969.78
2018-03-03T05:57:26.782Z,969.75
2018-03-03T05:58:26.695Z,969.77
2018-03-03T05:59:26.609Z,969.76
2018-03-03T06:00:26.522Z,969.76
2018-03-03T06:01:26.440Z,969.74
2018-03-03T06:02:26.351Z,969.73
2018-03-03T06:03:26.264Z,969.73
2018-03-03T06:04:26.178Z,969.73
2018-03-03T06:05:26.097Z,969.72
2018-03-03T06:06:26.007Z,969.70
2018-03-03T06:07:25.920Z,969.71
2018-03-03T06:08:25.832Z,969.71
2018-03-03T06:09:25.747Z,969.66
2018-03-03T06:10:25.661Z,969.64
2018-03-03T06:11:25.576Z,969.67
2018-03-03T06:12:25.488Z,969.72
2018-03-03T06:13:25.402Z,969.67
2018-03-03T06:14:25.316Z,969.72
2018-03-03T06:15:25.231Z,969.72
2018-03-03T06:16:25.144Z,969.72
2018-03-03T06:17:25.058Z,969.70
2018-03-03T06:18:24.972Z,969.70
2018-03-03T06:19:24.886Z,969.74
2018-03-03T06:20:24.799Z,969.77
2018-03-03T06:21:24.714Z,969.78
2018-03-03T06:22:24.631Z,969.80
2018-03-03T06:23:24.542Z,969.77
2018-03-03T06:24:24.455Z,969.77
2018-03-03T06:25:24.370Z,969.77
2018-03-03T06:26:24.283Z,969.80
2018-03-03T06:27:24.197Z,969.82
2018-03-03T06:28:24.111Z,969.79
2018-03-03T06:29:24.027Z,969.83
2018-03-03T06:30:23.939Z,969.83
2018-03-03T06:31:23.853Z,969.84
2018-03-03T06:32:23.766Z,969.81
2018-03-03T06:33:23.680Z,969.84
2018-03-03T06:34:23.594Z,969.86
2018-03-03T06:35:23.509Z,969.88
2018-03-03T06:36:23.421Z,969.88
2018-03-03T06:37:23.335Z,969.82
2018-03-03T06:38:23.249Z,969.90
2018-03-03T06:39:23.163Z,969.87
2018-03-03T06:40:23.077Z,969.85
2018-03-03T06:41:22.991Z,969.88
2018-03-03T06:42:22.905Z,969.88
2018-03-03T06:43:22.818Z,969.91
2018-03-03T06:44:22.736Z,969.88
2018-03-03T06:45:22.645Z,969.90
2018-03-03T06:46:22.562Z,969.97
2018-03-03T06:47:22.473Z,969.90
2018-03-03T06:48:22.387Z,969.91
2018-03-03T06:49:22.300Z,969.90
2018-03-03T06:50:22.214Z,969.92
2018-03-03T06:51:22.130Z,969.94
2018-03-03T06:52:22.057Z,969.96
2018-03-03T06:53:21.954Z,969.93
2018-03-03T06:54:21.869Z,969.91
2018-03-03T06:55:21.783Z,969.90
2018-03-03T06:56:21.697Z,969.90
2018-03-03T06:57:21.610Z,969.88
2018-03-03T06:58:21.525Z,969.87
2018-03-03T06:59:21.439Z,969.92
2018-03-03T07:00:21.351Z,969.88
2018-03-03T07:01:21.265Z,969.94
2018-03-03T07:02:21.180Z,969.93
2018-03-03T07:03:21.093Z,969.96
2018-03-03T07:04:21.005Z,969.93
2018-03-03T07:05:20.918Z,969.99
2018-03-03T07:06:20.839Z,969.97
2018-03-03T07:07:20.747Z,969.95
2018-03-03T07:08:20.663Z,969.98
2018-03-03T07:09:20.574Z,969.96
2018-03-03T07:10:20.488Z,969.95
2018-03-03T07:11:20.402Z,969.95
2018-03-03T07:12:20.316Z,969.90
2018-03-03T07:13:20.234Z,969.95
2018-03-03T07:14:20.145Z,969.90
2018-03-03T07:15:20.058Z,969.94
2018-03-03T07:16:19.971Z,969.97
2018-03-03T07:17:19.885Z,969.99
2018-03-03T07:18:19.801Z,970.00
2018-03-03T07:19:19.715Z,969.98
2018-03-03T07:20:19.629Z,970.04
2018-03-03T07:21:19.542Z,969.96
2018-03-03T07:22:19.457Z,969.92
2018-03-03T07:23:19.371Z,969.94
2018-03-03T07:24:19.330Z,969.92
2018-03-03T07:25:19.199Z,969.90
2018-03-03T07:26:19.114Z,969.85
2018-03-03T07:27:19.029Z,969.91
2018-03-03T07:28:19.005Z,969.90
2018-03-03T07:29:18.855Z,969.87
2018-03-03T07:30:18.774Z,969.90
2018-03-03T07:31:18.684Z,969.90
2018-03-03T07:32:18.596Z,969.90
2018-03-03T07:33:18.512Z,969.95
2018-03-03T07:34:18.427Z,969.92
2018-03-03T07:35:18.341Z,969.94
2018-03-03T07:36:18.254Z,969.94
2018-03-03T07:37:18.169Z,969.96
2018-03-03T07:38:18.082Z,970.01
2018-03-03T07:39:17.997Z,969.97
2018-03-03T07:40:17.913Z,969.96
2018-03-03T07:41:17.826Z,970.04
2018-03-03T07:42:17.740Z,969.96
2018-03-03T07:43:17.656Z,969.95
2018-03-03T07:44:17.568Z,970.01
2018-03-03T07:45:17.482Z,969.97
2018-03-03T07:46:17.397Z,970.03
2018-03-03T07:47:17.311Z,970.04
2018-03-03T07:48:17.225Z,970.05
2018-03-03T07:49:17.143Z,970.05
2018-03-03T07:50:17.054Z,970.07
2018-03-03T07:51:16.969Z,970.05
2018-03-03T07:52:16.883Z,970.05
2018-03-03T07:53:16.802Z,970.05
2018-03-03T07:54:16.715Z,970.01
2018-03-03T07:55:16.628Z,970.00
2018-03-03T07:56:16.542Z,970.00
2018-03-03T07:57:16.457Z,969.97
2018-03-03T07:58:16.373Z,969.97
2018-03-03T07:59:16.287Z,970.01
2018-03-03T08:00:16.202Z,970.00
2018-03-03T08:01:16.117Z,970.00
2018-03-03T08:02:16.033Z,970.01
2018-03-03T08:03:15.948Z,969.97
2018-03-03T08:04:15.862Z,969.97
2018-03-03T08:05:15.778Z,970.00
2018-03-03T08:06:15.693Z,969.99
2018-03-03T08:07:15.612Z,969.97
2018-03-03T08:08:15.522Z,969.97
2018-03-03T08:09:15.437Z,969.98
2018-03-03T08:10:15.353Z,970.01
2018-03-03T08:11:15.269Z,970.00
2018-03-03T08:12:15.183Z,969.98
2018-03-03T08:13:15.099Z,969.97
2018-03-03T08:14:15.015Z,970.01
2018-03-03T08:15:14.930Z,970.04
2018-03-03T08:16:14.845Z,970.03
2018-03-03T08:17:14.760Z,970.03
2018-03-03T08:18:14.676Z,970.04
2018-03-03T08:19:14.592Z,970.00
2018-03-03T08:20:14.507Z,970.03
2018-03-03T08:21:14.423Z,970.08
2018-03-03T08:22:14.337Z,970.01
2018-03-03T08:23:14.253Z,969.99
2018-03-03T08:24:14.168Z,969.98
2018-03-03T08:25:14.085Z,969.98
2018-03-03T08:26:14.000Z,969.97
2018-03-03T08:27:13.918Z,969.94
2018-03-03T08:28:13.830Z,969.98
2018-03-03T08:29:13.747Z,969.95
2018-03-03T08:30:13.664Z,969.90
2018-03-03T08:31:13.579Z,969.90
2018-03-03T08:32:13.493Z,969.88
2018-03-03T08:33:13.411Z,969.90
2018-03-03T08:34:13.326Z,969.86
2018-03-03T08:35:13.242Z,969.90
2018-03-03T08:36:13.158Z,969.89
2018-03-03T08:37:13.073Z,969.89
2018-03-03T08:38:12.989Z,969.87
2018-03-03T08:39:12.906Z,969.88
2018-03-03T08:40:12.821Z,969.85
2018-03-03T08:41:12.738Z,969.84
2018-03-03T08:42:12.653Z,969.88
2018-03-03T08:43:12.570Z,969.94
2018-03-03T08:44:12.486Z,969.93
2018-03-03T08:45:12.401Z,969.98
2018-03-03T08:46:12.319Z,970.00
2018-03-03T08:47:12.234Z,970.01
2018-03-03T08:48:12.151Z,969.99
2018-03-03T08:49:12.068Z,969.99
2018-03-03T08:50:11.984Z,970.03
2018-03-03T08:51:11.907Z,970.07
2018-03-03T08:52:11.815Z,970.04
2018-03-03T08:53:11.737Z,970.02
2018-03-03T08:54:11.650Z,970.01
2018-03-03T08:55:11.567Z,969.97
2018-03-03T08:56:11.482Z,969.97
2018-03-03T08:57:11.427Z,969.99
2018-03-03T08:58:11.316Z,970.01
2018-03-03T08:59:11.233Z,969.98
2018-03-03T09:00:11.151Z,970.10
2018-03-03T09:01:11.065Z,969.99
2018-03-03T09:02:10.983Z,970.06
2018-03-03T09:03:10.897Z,970.05
2018-03-03T09:04:10.813Z,970.03
2018-03-03T09:05:10.728Z,970.01
2018-03-03T09:06:10.645Z,970.01
2018-03-03T09:07:10.566Z,970.02
2018-03-03T09:08:10.477Z,969.98
2018-03-03T09:09:10.394Z,970.02
2018-03-03T09:10:10.312Z,969.97
2018-03-03T09:11:10.227Z,969.99
2018-03-03T09:12:10.143Z,969.99
2018-03-03T09:13:10.060Z,969.97
2018-03-03T09:14:09.977Z,970.01
2018-03-03T09:15:09.894Z,970.06
2018-03-03T09:16:09.811Z,970.01
2018-03-03T09:17:09.728Z,970.02
2018-03-03T09:18:09.645Z,970.04
2018-03-03T09:19:09.570Z,970.03
2018-03-03T09:20:09.478Z,970.02
2018-03-03T09:21:09.396Z,970.01
2018-03-03T09:22:09.313Z,970.00
2018-03-03T09:23:09.231Z,970.01
2018-03-03T09:24:09.148Z,969.99
2018-03-03T09:25:09.065Z,970.02
2018-03-03T09:26:08.982Z,970.01
2018-03-03T09:27:08.901Z,970.02
2018-03-03T09:28:08.819Z,970.00
2018-03-03T09:29:08.734Z,970.00
2018-03-03T09:30:08.653Z,970.03
2018-03-03T09:31:08.570Z,970.07
2018-03-03T09:32:08.486Z,970.01
2018-03-03T09:33:08.406Z,970.00
2018-03-03T09:34:08.324Z,969.98
2018-03-03T09:35:08.246Z,969.98
2018-03-03T09:36:08.158Z,970.00
2018-03-03T09:37:08.077Z,970.01
2018-03-03T09:38:07.995Z,970.03
2018-03-03T09:39:07.915Z,970.02
2018-03-03T09:40:07.830Z,970.07
2018-03-03T09:41:07.750Z,970.01
2018-03-03T09:42:07.666Z,970.05
2018-03-03T09:43:07.585Z,970.02
2018-03-03T09:44:07.502Z,970.04
2018-03-03T09:45:07.423Z,970.03
2018-03-03T09:46:07.350Z,970.05
2018-03-03T09:47:07.258Z,970.02
2018-03-03T09:48:07.174Z,970.07
2018-03-03T09:49:07.093Z,970.09
2018-03-03T09:50:07.012Z,970.08
2018-03-03T09:51:06.930Z,970.10
2018-03-03T09:52:06.848Z,970.08
2018-03-03T09:53:06.766Z,970.06
2018-03-03T09:54:06.685Z,970.10
2018-03-03T09:55:06.604Z,970.06
2018-03-03T09:56:06.522Z,970.11
2018-03-03T09:57:06.440Z,970.09
2018-03-03T09:58:06.360Z,970.08
2018-03-03T09:59:06.278Z,970.09
2018-03-03T10:00:06.195Z,970.09
2018-03-03T10:01:06.113Z,970.09
2018-03-03T10:02:06.584Z,970.13
2018-03-03T10:03:05.952Z,970.09
2018-03-03T10:04:05.870Z,970.15
2018-03-03T10:05:05.789Z,970.12
2018-03-03T10:06:05.708Z,970.11
2018-03-03T10:07:05.628Z,970.14
2018-03-03T10:08:05.547Z,970.11
2018-03-03T10:09:05.465Z,970.11
2018-03-03T10:10:05.388Z,970.10
2018-03-03T10:11:05.303Z,970.05
2018-03-03T10:12:05.222Z,970.02
2018-03-03T10:13:05.142Z,970.02
2018-03-03T10:14:05.060Z,969.98
2018-03-03T10:15:04.995Z,969.97
2018-03-03T10:16:04.898Z,969.97
2018-03-03T10:17:04.818Z,969.96
2018-03-03T10:18:04.738Z,970.01
2018-03-03T10:19:04.656Z,969.96
2018-03-03T10:20:04.579Z,969.96
2018-03-03T10:21:04.495Z,970.00
2018-03-03T10:22:04.416Z,969.96
2018-03-03T10:23:04.338Z,969.98
2018-03-03T10:24:04.257Z,970.01
2018-03-03T10:25:04.177Z,969.97
2018-03-03T10:26:04.092Z,969.98
2018-03-03T10:27:04.015Z,969.95
2018-03-03T10:28:03.930Z,969.98
2018-03-03T10:29:03.849Z,969.99
2018-03-03T10:30:03.768Z,969.98
2018-03-03T10:31:03.690Z,970.01
2018-03-03T10:32:03.607Z,969.99
2018-03-03T10:33:03.605Z,970.01
2018-03-03T10:34:03.446Z,970.02
2018-03-03T10:35:03.366Z,970.00
2018-03-03T10:36:03.284Z,969.98
2018-03-03T10:37:03.205Z,970.01
2018-03-03T10:38:03.124Z,970.03
2018-03-03T10:39:03.044Z,970.00
2018-03-03T10:40:02.962Z,970.05
2018-03-03T10:41:02.882Z,970.02
2018-03-03T10:42:02.801Z,970.01
2018-03-03T10:43:02.723Z,970.00
2018-03-03T10:44:02.643Z,969.99
2018-03-03T10:45:02.559Z,970.01
2018-03-03T10:46:02.478Z,970.02
2018-03-03T10:47:02.397Z,970.00
2018-03-03T10:48:02.317Z,970.02
2018-03-03T10:49:02.235Z,970.02
2018-03-03T10:50:02.156Z,970.00
2018-03-03T10:51:02.077Z,969.96
2018-03-03T10:52:01.993Z,969.96
2018-03-03T10:53:01.914Z,970.00
2018-03-03T10:54:01.832Z,969.92
2018-03-03T10:55:01.750Z,969.98
2018-03-03T10:56:01.669Z,969.96
2018-03-03T10:57:01.590Z,969.96
2018-03-03T10:58:01.511Z,969.96
2018-03-03T10:59:01.427Z,969.96
2018-03-03T11:00:01.346Z,969.93
2018-03-03T11:01:01.265Z,969.91
2018-03-03T11:02:01.186Z,969.98
2018-03-03T11:03:01.102Z,969.96
2018-03-03T11:04:01.025Z,969.95
2018-03-03T11:05:00.940Z,969.93
2018-03-03T11:06:00.860Z,969.99
2018-03-03T11:07:00.779Z,969.94
2018-03-03T11:08:00.698Z,969.93
2018-03-03T11:09:00.617Z,969.93
2018-03-03T11:10:00.537Z,969.87
2018-03-03T11:11:00.465Z,969.89
2018-03-03T11:12:00.380Z,969.92
2018-03-03T11:13:00.296Z,969.88
2018-03-03T11:14:00.214Z,969.92
2018-03-03T11:15:00.138Z,969.90
2018-03-03T11:16:00.054Z,969.89
2018-03-03T11:16:59.974Z,969.92
2018-03-03T11:17:59.893Z,969.91
2018-03-03T11:18:59.812Z,969.94
2018-03-03T11:19:59.732Z,969.92
2018-03-03T11:20:59.651Z,969.91
2018-03-03T11:21:59.572Z,969.93
2018-03-03T11:22:59.491Z,969.93
2018-03-03T11:23:59.408Z,969.92
2018-03-03T11:24:59.330Z,969.91
2018-03-03T11:25:59.253Z,969.95
2018-03-03T11:26:59.169Z,969.91
2018-03-03T11:27:59.091Z,969.92
2018-03-03T11:28:59.008Z,969.93
2018-03-03T11:29:58.927Z,969.89
2018-03-03T11:30:58.845Z,969.86
2018-03-03T11:31:58.764Z,969.87
2018-03-03T11:32:58.684Z,969.88
2018-03-03T11:33:58.603Z,969.88
2018-03-03T11:34:58.521Z,969.86
2018-03-03T11:35:58.440Z,969.83
2018-03-03T11:36:58.358Z,969.85
2018-03-03T11:37:58.276Z,969.84
2018-03-03T11:38:58.195Z,969.84
2018-03-03T11:39:58.114Z,969.84
2018-03-03T11:40:58.035Z,969.87
2018-03-03T11:41:57.957Z,969.84
2018-03-03T11:42:57.870Z,969.85
2018-03-03T11:43:57.788Z,969.82
2018-03-03T11:44:57.707Z,969.85
2018-03-03T11:45:57.627Z,969.88
2018-03-03T11:46:57.546Z,969.86
2018-03-03T11:47:57.463Z,969.87
2018-03-03T11:48:57.382Z,969.90
2018-03-03T11:49:57.301Z,969.86
2018-03-03T11:50:57.225Z,969.83
2018-03-03T11:51:57.139Z,969.83
2018-03-03T11:52:57.062Z,969.78
2018-03-03T11:53:56.976Z,969.83
2018-03-03T11:54:56.894Z,969.82
2018-03-03T11:55:56.813Z,969.82
2018-03-03T11:56:56.735Z,969.81
2018-03-03T11:57:56.655Z,969.84
2018-03-03T11:58:56.568Z,969.84
2018-03-03T11:59:56.487Z,969.79
2018-03-03T12:00:56.404Z,969.84
2018-03-03T12:01:56.324Z,969.85
2018-03-03T12:02:56.243Z,969.86
2018-03-03T12:03:56.160Z,969.87
2018-03-03T12:04:56.078Z,969.88
2018-03-03T12:05:56.002Z,969.90
2018-03-03T12:06:55.918Z,969.84
2018-03-03T12:07:55.833Z,969.83
2018-03-03T12:08:55.753Z,969.81
2018-03-03T12:09:55.670Z,969.84
2018-03-03T12:10:55.591Z,969.76
2018-03-03T12:11:55.507Z,969.79
2018-03-03T12:12:55.424Z,969.75
2018-03-03T12:13:55.343Z,969.76
2018-03-03T12:14:55.263Z,969.78
2018-03-03T12:15:55.179Z,969.74
2018-03-03T12:16:55.098Z,969.79
2018-03-03T12:17:55.017Z,969.78
2018-03-03T12:18:54.935Z,969.78
2018-03-03T12:19:54.852Z,969.79
2018-03-03T12:20:54.771Z,969.85
2018-03-03T12:21:54.690Z,969.86
2018-03-03T12:22:54.609Z,969.83
2018-03-03T12:23:54.529Z,969.85
2018-03-03T12:24:54.445Z,969.80
2018-03-03T12:25:54.363Z,969.81
2018-03-03T12:26:54.282Z,969.75
2018-03-03T12:27:54.201Z,969.80